Time;durP1;ratioP1;P1;durP2;ratioP2;P2;SDS_P1;SDS_P2;PMS_P1;PMS_P2;Temp;Humidity;BMP_temperature;BMP_pressure;BME280_temperature;BME280_humidity;BME280_pressure;Samples;Min_cycle;Max_cycle;Signal;HPM_P1;HPM_P2
2023/03/19 07:32:42;;;;;;;2.30;1.30;;;;;;;;;;5120876;27;20207;-62
2023/03/19 07:35:09;;;;;;;2.20;1.50;;;;;;;;;;5122239;27;20066;-63
2023/03/19 07:37:35;;;;;;;2.55;1.50;;;;;;;;;;5122721;27;20050;-62
2023/03/19 07:40:02;;;;;;;2.15;1.27;;;;;;;;;;5121150;28;20067;-63
2023/03/19 07:42:28;;;;;;;2.50;1.25;;;;;;;;;;5121789;27;20440;-63
2023/03/19 07:44:54;;;;;;;4.18;1.42;;;;;;;;;;5113187;28;20089;-63
2023/03/19 07:47:20;;;;;;;2.28;1.55;;;;;;;;;;5107320;28;20098;-63
2023/03/19 07:49:46;;;;;;;2.00;1.50;;;;;;;;;;5100033;28;20043;-63
2023/03/19 07:52:13;;;;;;;2.50;1.50;;;;;;;;;;5100485;28;20127;-63
2023/03/19 07:54:39;;;;;;;2.25;1.30;;;;;;;;;;5101051;28;20051;-63
2023/03/19 07:57:05;;;;;;;2.22;1.40;;;;;;;;;;5099371;28;20043;-63
2023/03/19 07:59:31;;;;;;;4.85;1.70;;;;;;;;;;5101325;28;20079;-63
2023/03/19 08:01:57;;;;;;;3.05;1.55;;;;;;;;;;5099323;28;20044;-64
2023/03/19 08:04:23;;;;;;;3.90;1.50;;;;;;;;;;5099815;28;20089;-64
2023/03/19 08:06:49;;;;;;;2.88;1.60;;;;;;;;;;5099975;28;20051;-65
2023/03/19 08:09:15;;;;;;;2.42;1.33;;;;;;;;;;5099815;28;20405;-64
2023/03/19 08:11:41;;;;;;;2.60;1.58;;;;;;;;;;5100766;28;20444;-63
2023/03/19 08:14:08;;;;;;;3.60;1.67;;;;;;;;;;5100030;28;20406;-62
2023/03/19 08:16:34;;;;;;;3.13;1.85;;;;;;;;;;5099743;28;20110;-62
2023/03/19 08:19:01;;;;;;;2.72;1.55;;;;;;;;;;5100818;28;20097;-62
2023/03/19 08:21:27;;;;;;;2.50;1.75;;;;;;;;;;5100717;28;20048;-63
2023/03/19 08:23:53;;;;;;;2.33;1.30;;;;;;;;;;5100450;28;20047;-62
2023/03/19 08:26:19;;;;;;;3.38;1.50;;;;;;;;;;5100705;28;20105;-63
2023/03/19 08:28:45;;;;;;;2.05;1.35;;;;;;;;;;5100986;28;20059;-62
2023/03/19 08:31:12;;;;;;;4.50;1.80;;;;;;;;;;5099477;28;20577;-64
2023/03/19 08:33:39;;;;;;;2.88;1.50;;;;;;;;;;5100921;28;20052;-62
2023/03/19 08:36:06;;;;;;;2.55;1.60;;;;;;;;;;5100584;28;20044;-62
2023/03/19 08:38:32;;;;;;;2.60;1.63;;;;;;;;;;5100296;28;20436;-62
2023/03/19 08:41:01;;;;;;;2.13;1.42;;;;;;;;;;5100864;28;20052;-62
2023/03/19 08:43:27;;;;;;;3.42;1.58;;;;;;;;;;5089819;28;20169;-62
2023/03/19 08:45:54;;;;;;;3.30;1.80;;;;;;;;;;5091825;28;20049;-62
2023/03/19 08:48:20;;;;;;;2.53;1.40;;;;;;;;;;5105511;28;20035;-63
2023/03/19 08:50:51;;;;;;;2.90;1.58;;;;;;;;;;5107453;28;20036;-62
2023/03/19 08:53:17;;;;;;;3.10;1.70;;;;;;;;;;5107358;28;20072;-63
2023/03/19 08:55:43;;;;;;;4.40;1.55;;;;;;;;;;5106487;28;20117;-62
2023/03/19 08:58:09;;;;;;;2.50;1.60;;;;;;;;;;5106671;28;20077;-62
2023/03/19 09:00:35;;;;;;;2.47;1.77;;;;;;;;;;5105917;28;20536;-62
2023/03/19 09:03:02;;;;;;;3.22;1.60;;;;;;;;;;5106155;28;20471;-62
2023/03/19 09:05:28;;;;;;;2.70;2.22;;;;;;;;;;5106581;28;20069;-62
2023/03/19 09:07:54;;;;;;;2.47;1.70;;;;;;;;;;5106996;28;20485;-62
2023/03/19 09:10:20;;;;;;;2.95;1.60;;;;;;;;;;5107108;28;20043;-62
2023/03/19 09:12:46;;;;;;;3.05;2.13;;;;;;;;;;5106739;28;20044;-62
2023/03/19 09:15:12;;;;;;;4.15;2.00;;;;;;;;;;5105587;28;20073;-62
2023/03/19 09:17:38;;;;;;;2.10;1.40;;;;;;;;;;5106862;28;20044;-62
2023/03/19 09:20:05;;;;;;;3.25;2.17;;;;;;;;;;5106334;28;20077;-63
2023/03/19 09:22:31;;;;;;;3.08;1.40;;;;;;;;;;5106643;28;20048;-62
2023/03/19 09:24:58;;;;;;;2.42;1.58;;;;;;;;;;5106481;28;20090;-62
2023/03/19 09:27:24;;;;;;;2.72;1.40;;;;;;;;;;5105876;28;20035;-62
2023/03/19 09:29:50;;;;;;;2.78;1.77;;;;;;;;;;5105673;28;20134;-63
2023/03/19 09:32:16;;;;;;;2.22;1.67;;;;;;;;;;5105482;28;20062;-62
2023/03/19 09:34:42;;;;;;;3.05;1.65;;;;;;;;;;5106076;28;20534;-62
2023/03/19 09:37:10;;;;;;;3.72;1.80;;;;;;;;;;5105595;28;20470;-62
2023/03/19 09:39:36;;;;;;;2.58;1.65;;;;;;;;;;5106109;28;20704;-62
2023/03/19 09:42:14;;;;;;;2.88;1.75;;;;;;;;;;5105955;28;20050;-63
2023/03/19 09:44:42;;;;;;;2.55;1.83;;;;;;;;;;5101237;28;20269;-62
2023/03/19 09:47:30;;;;;;;12.85;2.10;;;;;;;;;;5089508;28;20070;-62
2023/03/19 09:50:01;;;;;;;7.82;1.90;;;;;;;;;;5103583;28;20047;-63
2023/03/19 09:52:40;;;;;;;10.88;1.92;;;;;;;;;;5104914;28;20047;-62
2023/03/19 09:55:15;;;;;;;14.55;1.98;;;;;;;;;;5083342;28;20127;-63
2023/03/19 09:57:41;;;;;;;12.10;1.73;;;;;;;;;;5088465;27;20077;-62
2023/03/19 10:00:18;;;;;;;7.28;1.92;;;;;;;;;;5093580;28;20101;-62
2023/03/19 10:02:44;;;;;;;6.65;1.98;;;;;;;;;;5083823;28;20091;-62
2023/03/19 10:05:30;;;;;;;7.65;1.95;;;;;;;;;;5102710;28;20047;-62
2023/03/19 10:08:14;;;;;;;5.35;1.75;;;;;;;;;;5104513;27;20050;-62
2023/03/19 10:11:03;;;;;;;7.18;1.73;;;;;;;;;;5104893;28;20131;-62
2023/03/19 10:13:38;;;;;;;5.93;1.80;;;;;;;;;;5103774;28;20109;-63
2023/03/19 10:16:05;;;;;;;5.80;1.60;;;;;;;;;;5103968;28;20473;-62
2023/03/19 10:18:33;;;;;;;5.05;1.70;;;;;;;;;;5103667;28;20048;-62
2023/03/19 10:21:10;;;;;;;10.13;2.20;;;;;;;;;;5104081;27;20031;-65
2023/03/19 10:23:39;;;;;;;5.03;1.80;;;;;;;;;;5104154;28;20068;-64
2023/03/19 10:26:08;;;;;;;5.60;1.70;;;;;;;;;;5104578;28;20069;-63
2023/03/19 10:28:36;;;;;;;4.32;1.65;;;;;;;;;;5103845;28;20397;-62
2023/03/19 10:31:11;;;;;;;5.85;1.60;;;;;;;;;;5103842;28;20052;-62
2023/03/19 10:33:45;;;;;;;8.30;1.65;;;;;;;;;;5104284;28;20063;-62
2023/03/19 10:36:11;;;;;;;;;;;;;;;;;;5104668;28;21032;-63
2023/03/19 10:38:41;;;;;;;7.93;1.50;;;;;;;;;;5104654;28;20014;-62
2023/03/19 10:41:26;;;;;;;5.70;1.70;;;;;;;;;;5102571;28;20047;-62
2023/03/19 10:43:54;;;;;;;4.13;1.50;;;;;;;;;;5104730;28;20046;-62
2023/03/19 10:46:20;;;;;;;4.63;1.60;;;;;;;;;;5097587;28;20039;-64
2023/03/19 10:48:47;;;;;;;4.35;2.15;;;;;;;;;;5103261;28;20406;-63
2023/03/19 10:51:18;;;;;;;6.20;2.00;;;;;;;;;;5103992;28;20263;-63
2023/03/19 10:53:44;;;;;;;4.47;1.73;;;;;;;;;;5102758;28;20046;-62
2023/03/19 10:56:17;;;;;;;5.10;1.80;;;;;;;;;;5103540;28;20401;-62
2023/03/19 10:58:56;;;;;;;10.82;2.45;;;;;;;;;;5104181;28;20035;-67
2023/03/19 11:04:15;;;;;;;4.03;1.88;;;21.80;99.90;;;;;;5141944;27;20157;-65
2023/03/19 11:06:41;;;;;;;3.67;2.10;;;21.90;99.90;;;;;;5142605;27;20041;-65
2023/03/19 11:09:06;;;;;;;4.07;1.90;;;21.70;99.90;;;;;;5141820;27;20677;-65
2023/03/19 11:11:32;;;;;;;4.47;1.92;;;21.10;99.90;;;;;;5142544;27;20046;-63
2023/03/19 11:14:04;;;;;;;5.65;2.22;;;21.60;99.90;;;;;;5140324;27;20057;-64
2023/03/19 11:16:32;;;;;;;7.03;2.15;;;22.50;99.90;;;;;;5141184;27;20043;-65
2023/03/19 11:18:57;;;;;;;4.75;1.90;;;23.60;99.90;;;;;;5141859;27;20399;-64
2023/03/19 11:21:31;;;;;;;4.85;1.92;;;22.30;99.90;;;;;;5142327;27;20055;-66
2023/03/19 11:24:03;;;;;;;4.82;1.60;;;21.60;99.90;;;;;;5140437;27;20068;-63
2023/03/19 11:26:29;;;;;;;3.35;1.90;;;21.30;99.90;;;;;;5141356;27;20047;-62
2023/03/19 11:29:03;;;;;;;7.53;1.77;;;21.50;99.90;;;;;;5140746;27;20090;-63
2023/03/19 11:31:51;;;;;;;5.28;1.73;;;21.60;99.90;;;;;;5139956;27;20437;-63
2023/03/19 11:35:05;;;;;;;12.73;2.13;;;21.50;99.90;;;;;;5141253;27;20039;-63
2023/03/19 11:37:48;;;;;;;5.18;1.80;;;21.30;99.90;;;;;;5127383;27;20413;-64
2023/03/19 11:40:30;;;;;;;3.67;1.80;;;21.20;99.90;;;;;;5140563;27;20435;-63
2023/03/19 11:43:06;;;;;;;3.70;1.90;;;21.20;99.90;;;;;;5140778;27;20450;-63
2023/03/19 11:45:34;;;;;;;12.18;1.95;;;21.20;99.90;;;;;;5132673;27;20118;-64
2023/03/19 11:48:16;;;;;;;3.08;1.67;;;21.30;99.90;;;;;;5123535;27;20043;-63
2023/03/19 11:50:53;;;;;;;3.45;1.80;;;21.40;99.90;;;;;;5119374;28;20036;-64
2023/03/19 11:53:28;;;;;;;3.58;1.45;;;21.30;99.90;;;;;;5119966;28;20050;-64
2023/03/19 11:56:00;;;;;;;2.53;1.60;;;21.50;99.90;;;;;;5119286;27;20039;-65
2023/03/19 11:58:45;;;;;;;3.65;1.60;;;21.60;99.90;;;;;;5119749;27;20050;-63
2023/03/19 12:01:43;;;;;;;2.45;1.70;;;21.60;99.90;;;;;;5119602;28;20047;-64
2023/03/19 12:04:29;;;;;;;2.28;1.55;;;21.50;99.90;;;;;;5115989;27;20059;-65
2023/03/19 12:07:10;;;;;;;2.95;1.40;;;21.60;99.90;;;;;;5120639;27;20040;-64
2023/03/19 12:10:10;;;;;;;2.58;1.67;;;21.70;99.90;;;;;;5153225;27;20080;-64
2023/03/19 12:13:18;;;;;;;4.05;1.77;;;21.80;99.90;;;;;;5138520;27;20054;-62
2023/03/19 12:16:12;;;;;;;3.30;1.60;;;21.70;99.90;;;;;;5061717;28;20047;-64
2023/03/19 12:19:10;;;;;;;3.25;1.77;;;21.70;99.90;;;;;;5125878;27;20047;-64
2023/03/19 12:22:51;;;;;;;2.55;1.80;;;21.80;99.90;;;;;;5126252;27;20047;-70
2023/03/19 12:25:23;;;;;;;4.03;2.00;;;21.90;99.90;;;;;;5003111;28;20569;-62
2023/03/19 12:28:06;;;;;;;2.63;1.60;;;21.90;99.90;;;;;;5052707;28;20090;-70
2023/03/19 12:30:38;;;;;;;3.00;1.63;;;22.40;99.90;;;;;;5117951;27;20103;-69
2023/03/19 12:33:10;;;;;;;2.92;1.80;;;22.30;99.90;;;;;;5125492;27;20393;-69
2023/03/19 12:35:39;;;;;;;3.65;1.85;;;22.20;99.90;;;;;;5124534;27;20421;-68
2023/03/19 12:38:12;;;;;;;3.03;1.70;;;22.40;99.90;;;;;;5126331;27;20291;-69
2023/03/19 12:40:42;;;;;;;5.85;1.73;;;22.40;99.90;;;;;;5125872;27;20039;-69
2023/03/19 12:43:20;;;;;;;2.72;1.60;;;22.50;99.90;;;;;;5124559;27;20054;-67
2023/03/19 12:46:10;;;;;;;4.05;1.80;;;22.50;99.90;;;;;;5118182;27;20043;-67
2023/03/19 12:48:44;;;;;;;10.65;2.30;;;22.50;99.90;;;;;;5106469;28;20035;-67
2023/03/19 12:51:11;;;;;;;;;;;22.40;99.90;;;;;;5106589;28;20438;-67
2023/03/19 12:54:13;;;;;;;12.88;2.33;;;22.40;99.90;;;;;;5105138;27;19916;-67
2023/03/19 12:57:10;;;;;;;13.45;2.83;;;22.40;99.90;;;;;;5092221;28;20055;-67
2023/03/19 12:59:41;;;;;;;12.38;2.55;;;22.40;99.90;;;;;;5101934;28;20086;-67
2023/03/19 13:02:32;;;;;;;11.68;2.08;;;22.50;99.90;;;;;;5105545;28;20165;-67
2023/03/19 13:05:13;;;;;;;12.48;2.40;;;22.30;99.90;;;;;;5105865;28;20070;-63
2023/03/19 13:07:58;;;;;;;15.40;2.20;;;22.40;99.90;;;;;;5106144;28;20131;-63
2023/03/19 13:10:25;;;;;;;10.23;3.35;;;22.20;99.90;;;;;;5126019;27;20046;-72
2023/03/19 13:12:52;;;;;;;9.57;2.38;;;22.10;99.90;;;;;;5146541;27;20053;-73
2023/03/19 13:15:37;;;;;;;9.38;2.50;;;22.00;99.90;;;;;;5146221;27;20054;-70
2023/03/19 13:18:21;;;;;;;11.13;2.28;;;22.10;99.90;;;;;;5127838;27;20042;-72
2023/03/19 13:20:50;;;;;;;9.70;2.10;;;22.20;99.90;;;;;;5146360;27;20054;-72
2023/03/19 13:23:24;;;;;;;6.63;1.95;;;22.20;99.90;;;;;;5145441;27;20869;-71
2023/03/19 13:25:53;;;;;;;6.85;2.40;;;22.20;99.90;;;;;;5145694;27;20501;-71
2023/03/19 13:28:52;;;;;;;6.45;2.00;;;22.10;99.90;;;;;;5147140;27;20045;-72
2023/03/19 13:31:20;;;;;;;7.82;1.92;;;22.10;99.90;;;;;;5144394;27;20780;-69
2023/03/19 13:34:03;;;;;;;4.68;2.30;;;22.20;99.90;;;;;;5146597;27;20441;-72
2023/03/19 13:36:34;;;;;;;6.70;2.00;;;22.20;99.90;;;;;;5127569;27;20045;-69
2023/03/19 13:39:00;;;;;;;5.72;2.15;;;22.10;99.90;;;;;;5145462;27;20401;-72
2023/03/19 13:41:32;;;;;;;7.72;2.28;;;22.00;99.90;;;;;;5144151;27;20113;-70
2023/03/19 13:43:59;;;;;;;8.75;2.22;;;22.10;99.90;;;;;;5142575;27;20054;-69
2023/03/19 13:46:37;;;;;;;6.35;2.17;;;22.20;99.90;;;;;;5115063;27;20044;-72
2023/03/19 13:49:24;;;;;;;7.10;2.00;;;22.20;99.90;;;;;;5120247;27;20052;-72
2023/03/19 13:51:53;;;;;;;6.88;2.13;;;22.20;99.90;;;;;;5105279;28;20051;-72
2023/03/19 13:54:22;;;;;;;7.25;2.17;;;22.20;99.90;;;;;;5104535;28;20047;-69
2023/03/19 13:57:02;;;;;;;4.78;1.63;;;22.20;99.90;;;;;;5138016;27;20043;-72
2023/03/19 13:59:38;;;;;;;5.90;1.65;;;22.20;99.90;;;;;;5137286;27;20051;-71
2023/03/19 14:02:25;;;;;;;7.22;1.80;;;22.10;99.90;;;;;;5103688;28;20162;-71
2023/03/19 14:05:00;;;;;;;5.57;1.95;;;22.10;99.90;;;;;;5103061;28;20051;-70
2023/03/19 14:07:29;;;;;;;5.90;2.15;;;21.90;99.90;;;;;;5122678;27;20048;-71
2023/03/19 14:10:01;;;;;;;4.50;1.55;;;21.80;99.90;;;;;;5108905;28;20048;-71
2023/03/19 14:12:39;;;;;;;6.43;1.98;;;21.90;99.90;;;;;;5107755;28;20043;-69
2023/03/19 14:15:08;;;;;;;4.95;1.80;;;21.90;99.90;;;;;;5105737;28;20052;-72
2023/03/19 14:17:40;;;;;;;5.45;1.63;;;21.90;99.90;;;;;;5120369;27;20082;-69
2023/03/19 14:20:23;;;;;;;3.85;1.58;;;21.80;99.90;;;;;;5104210;28;20084;-70
2023/03/19 14:23:07;;;;;;;4.35;1.70;;;21.80;99.90;;;;;;5103324;28;20048;-69
2023/03/19 14:26:00;;;;;;;3.55;1.55;;;21.70;99.90;;;;;;5102534;28;20109;-71
2023/03/19 14:28:50;;;;;;;5.13;1.50;;;21.60;99.90;;;;;;5104081;28;20039;-69
2023/03/19 14:31:29;;;;;;;4.25;1.55;;;21.70;99.90;;;;;;5072575;28;20048;-71
2023/03/19 14:34:09;;;;;;;5.78;1.70;;;21.60;99.90;;;;;;5137039;27;20474;-72
2023/03/19 14:36:40;;;;;;;4.50;1.70;;;21.50;99.90;;;;;;5119597;27;20058;-71
2023/03/19 14:39:21;;;;;;;6.25;1.70;;;21.40;99.90;;;;;;5104013;28;20492;-71
2023/03/19 14:41:53;;;;;;;5.93;1.75;;;21.50;99.90;;;;;;5104669;28;20040;-72
2023/03/19 14:44:47;;;;;;;3.40;1.83;;;21.40;99.90;;;;;;5104280;27;20084;-71
2023/03/19 14:47:31;;;;;;;3.72;1.70;;;21.30;99.90;;;;;;5113458;27;20100;-72
2023/03/19 14:50:15;;;;;;;3.83;1.65;;;21.20;99.90;;;;;;5103792;28;20085;-72
2023/03/19 14:53:21;;;;;;;4.05;1.70;;;21.20;99.90;;;;;;5103541;28;20046;-71
2023/03/19 14:55:50;;;;;;;3.05;1.67;;;21.10;99.90;;;;;;5101826;28;20055;-72
2023/03/19 14:58:19;;;;;;;3.67;1.77;;;21.00;99.90;;;;;;5103937;28;20040;-72
2023/03/19 15:00:50;;;;;;;3.38;1.60;;;21.00;99.90;;;;;;5102973;28;20045;-70
2023/03/19 15:03:27;;;;;;;4.15;2.05;;;21.10;99.90;;;;;;5103241;28;20539;-71
2023/03/19 15:05:58;;;;;;;3.47;1.80;;;21.10;99.90;;;;;;5104451;28;20495;-70
2023/03/19 15:08:25;;;;;;;3.55;1.80;;;21.10;99.90;;;;;;5104411;28;20048;-71
2023/03/19 15:11:09;;;;;;;3.40;1.60;;;21.10;99.90;;;;;;5103121;28;20046;-71
2023/03/19 15:13:46;;;;;;;4.43;2.13;;;21.20;99.90;;;;;;5102714;28;20079;-71
2023/03/19 15:16:22;;;;;;;4.05;1.50;;;21.20;99.90;;;;;;5102891;28;20048;-70
2023/03/19 15:18:49;;;;;;;3.92;1.73;;;21.10;99.90;;;;;;5104323;28;20056;-69
2023/03/19 15:21:15;;;;;;;3.72;1.80;;;21.00;99.90;;;;;;5101994;28;20050;-69
2023/03/19 15:23:45;;;;;;;6.70;2.08;;;21.00;99.90;;;;;;5103566;28;20040;-71
2023/03/19 15:26:11;;;;;;;3.17;1.70;;;21.10;99.90;;;;;;5104530;28;20035;-70
2023/03/19 15:28:48;;;;;;;3.97;1.70;;;21.00;99.90;;;;;;5108709;27;20134;-70
2023/03/19 15:31:15;;;;;;;3.42;1.70;;;21.00;99.90;;;;;;5108415;28;20167;-70
2023/03/19 15:33:42;;;;;;;4.07;1.95;;;20.90;99.90;;;;;;5109371;28;20031;-70
2023/03/19 15:36:07;;;;;;;3.70;1.85;;;21.00;99.90;;;;;;5108066;28;20051;-70
2023/03/19 15:38:53;;;;;;;3.70;1.70;;;20.90;99.90;;;;;;5141984;27;20047;-71
2023/03/19 15:41:20;;;;;;;3.30;1.70;;;20.90;99.90;;;;;;5108691;28;20040;-70
2023/03/19 15:43:46;;;;;;;4.50;1.83;;;20.80;99.90;;;;;;5106373;28;20074;-70
2023/03/19 15:46:15;;;;;;;3.47;1.67;;;20.80;99.90;;;;;;5104956;28;20047;-70
2023/03/19 15:49:00;;;;;;;4.18;2.05;;;20.80;99.90;;;;;;5109294;28;20115;-70
2023/03/19 15:51:27;;;;;;;4.15;2.30;;;20.70;99.90;;;;;;5145842;27;20044;-69
2023/03/19 15:53:54;;;;;;;4.25;1.90;;;20.60;99.90;;;;;;5112778;27;20039;-71
2023/03/19 15:56:20;;;;;;;3.78;1.73;;;20.60;99.90;;;;;;5111959;27;20038;-70
2023/03/19 15:58:53;;;;;;;3.67;1.67;;;20.60;99.90;;;;;;5111997;27;20054;-69
2023/03/19 16:01:20;;;;;;;4.05;1.90;;;20.50;99.90;;;;;;5110383;27;20036;-71
2023/03/19 16:03:57;;;;;;;4.78;2.05;;;20.50;99.90;;;;;;5110204;27;20090;-71
2023/03/19 16:06:27;;;;;;;3.40;2.00;;;20.40;99.90;;;;;;5112426;27;20090;-69
2023/03/19 16:08:55;;;;;;;4.50;1.90;;;20.40;99.90;;;;;;5113144;27;20094;-72
2023/03/19 16:11:41;;;;;;;2.70;1.75;;;20.40;99.90;;;;;;5111322;27;20168;-70
2023/03/19 16:14:26;;;;;;;4.55;1.98;;;20.40;99.90;;;;;;5111448;27;20701;-70
2023/03/19 16:16:59;;;;;;;3.13;2.22;;;20.30;99.90;;;;;;5111091;27;20844;-72
2023/03/19 16:19:50;;;;;;;3.77;2.20;;;20.30;99.90;;;;;;5111537;27;20038;-71
2023/03/19 16:22:28;;;;;;;3.75;2.40;;;20.30;99.90;;;;;;5111329;27;20701;-72
2023/03/19 16:24:54;;;;;;;3.92;2.15;;;20.30;99.90;;;;;;5111507;27;20118;-71
2023/03/19 16:27:38;;;;;;;4.65;2.00;;;20.30;99.90;;;;;;5110840;27;20039;-71
2023/03/19 16:30:18;;;;;;;3.45;2.40;;;20.20;99.90;;;;;;5110968;27;20031;-71
2023/03/19 16:32:44;;;;;;;3.42;2.22;;;20.20;99.90;;;;;;5110952;27;20050;-69
2023/03/19 16:35:13;;;;;;;3.33;2.03;;;20.20;99.90;;;;;;5111588;27;20031;-71
2023/03/19 16:37:43;;;;;;;3.55;2.22;;;20.20;99.90;;;;;;5110585;27;20116;-69
2023/03/19 16:40:12;;;;;;;3.03;2.17;;;20.20;99.90;;;;;;5145965;27;20040;-62
2023/03/19 16:42:45;;;;;;;4.18;2.30;;;20.20;99.90;;;;;;5111726;27;20052;-66
2023/03/19 16:45:14;;;;;;;3.90;2.53;;;20.20;99.90;;;;;;5125288;27;20054;-70
2023/03/19 16:47:45;;;;;;;5.60;2.25;;;20.10;99.90;;;;;;5111622;27;20039;-70
2023/03/19 16:50:11;;;;;;;3.80;2.25;;;20.20;99.90;;;;;;5108933;27;20075;-70
2023/03/19 16:52:38;;;;;;;4.22;2.22;;;20.20;99.90;;;;;;5111446;27;20048;-71
2023/03/19 16:55:31;;;;;;;4.72;2.85;;;20.20;99.90;;;;;;5110121;27;20047;-70
2023/03/19 16:58:04;;;;;;;3.83;2.17;;;20.20;99.90;;;;;;5109201;27;20052;-70
2023/03/19 17:00:32;;;;;;;5.07;2.40;;;20.10;99.90;;;;;;5110372;27;20680;-70
2023/03/19 17:02:58;;;;;;;5.30;2.28;;;20.10;99.90;;;;;;5102812;27;20067;-70
2023/03/19 17:05:26;;;;;;;5.00;2.67;;;20.10;99.90;;;;;;5143902;27;20435;-68
2023/03/19 17:07:54;;;;;;;5.88;2.70;;;20.20;99.90;;;;;;5108673;27;20158;-68
2023/03/19 17:10:21;;;;;;;6.38;3.30;;;20.10;99.90;;;;;;5110661;27;20097;-68
2023/03/19 17:12:49;;;;;;;4.18;2.72;;;20.10;99.90;;;;;;5112795;27;20451;-68
2023/03/19 17:15:21;;;;;;;4.93;2.58;;;20.20;99.90;;;;;;5109395;27;20566;-68
2023/03/19 17:17:48;;;;;;;8.60;2.80;;;20.10;99.90;;;;;;5111710;27;20039;-68
2023/03/19 17:20:25;;;;;;;4.50;2.75;;;20.10;99.90;;;;;;5111377;27;20062;-68
2023/03/19 17:22:51;;;;;;;5.18;2.92;;;20.10;99.90;;;;;;5108455;27;20082;-68
2023/03/19 17:25:20;;;;;;;4.55;2.92;;;20.10;99.90;;;;;;5110315;27;20564;-69
2023/03/19 17:27:46;;;;;;;4.57;2.72;;;20.10;99.90;;;;;;5110793;27;20039;-69
2023/03/19 17:30:12;;;;;;;7.22;2.75;;;20.10;99.90;;;;;;5109583;27;20047;-68
2023/03/19 17:32:40;;;;;;;5.88;3.13;;;20.00;99.90;;;;;;5113025;27;20284;-68
2023/03/19 17:35:24;;;;;;;7.70;3.25;;;20.00;99.90;;;;;;5111790;27;20118;-69
2023/03/19 17:37:51;;;;;;;8.10;3.40;;;20.10;99.90;;;;;;5145469;27;20164;-69
2023/03/19 17:40:20;;;;;;;6.50;3.60;;;20.10;99.90;;;;;;5111022;27;20039;-69
2023/03/19 17:42:46;;;;;;;5.28;3.40;;;20.10;99.90;;;;;;5110286;27;20043;-69
2023/03/19 17:45:17;;;;;;;5.55;3.17;;;20.00;99.90;;;;;;5108283;27;20050;-69
2023/03/19 17:47:47;;;;;;;4.93;3.20;;;20.00;99.90;;;;;;5110951;27;20416;-68
2023/03/19 17:50:22;;;;;;;8.10;3.63;;;20.00;99.90;;;;;;5108191;27;20047;-69
2023/03/19 17:52:48;;;;;;;8.00;3.90;;;20.00;99.90;;;;;;5109621;27;20035;-70
2023/03/19 17:55:18;;;;;;;7.40;4.18;;;20.00;99.90;;;;;;5110821;27;20520;-68
2023/03/19 17:57:44;;;;;;;6.40;3.78;;;20.00;99.90;;;;;;5107903;27;20035;-71
2023/03/19 18:00:11;;;;;;;7.50;3.85;;;20.00;99.90;;;;;;5110523;27;20371;-70
2023/03/19 18:02:39;;;;;;;6.97;3.83;;;20.00;99.90;;;;;;5142785;27;20050;-68
2023/03/19 18:05:12;;;;;;;6.50;4.20;;;20.00;99.90;;;;;;5143139;27;20047;-67
2023/03/19 18:07:38;;;;;;;7.47;4.20;;;20.00;99.90;;;;;;5110143;27;20041;-70
2023/03/19 18:10:04;;;;;;;6.50;3.70;;;19.90;99.90;;;;;;5108858;27;20046;-69
2023/03/19 18:12:30;;;;;;;7.93;3.75;;;20.00;99.90;;;;;;5108702;27;20047;-70
2023/03/19 18:14:55;;;;;;;8.20;4.03;;;19.90;99.90;;;;;;5108672;27;20050;-69
2023/03/19 18:17:21;;;;;;;7.32;4.25;;;19.90;99.90;;;;;;5093852;27;20122;-64
2023/03/19 18:19:49;;;;;;;8.85;4.78;;;19.90;99.90;;;;;;5108753;27;20047;-73
2023/03/19 18:22:17;;;;;;;12.02;4.88;;;19.90;99.90;;;;;;5109091;27;20062;-68
2023/03/19 18:24:43;;;;;;;8.65;4.88;;;20.20;99.90;;;;;;5108970;27;20045;-70
2023/03/19 18:27:09;;;;;;;8.57;4.90;;;20.10;99.90;;;;;;5109292;27;21871;-69
2023/03/19 18:29:35;;;;;;;12.05;5.15;;;20.10;99.90;;;;;;5141262;27;20038;-69
2023/03/19 18:32:13;;;;;;;9.30;5.35;;;20.00;99.90;;;;;;5105751;27;20122;-69
2023/03/19 18:34:39;;;;;;;7.60;5.00;;;20.00;99.90;;;;;;5107570;27;20596;-69
2023/03/19 18:37:05;;;;;;;10.73;5.05;;;20.00;99.90;;;;;;5108239;27;20043;-69
2023/03/19 18:39:35;;;;;;;11.65;6.28;;;20.00;99.90;;;;;;5107682;27;20553;-69
2023/03/19 18:42:01;;;;;;;12.98;5.45;;;20.00;99.90;;;;;;5115985;27;20047;-70
2023/03/19 18:44:26;;;;;;;10.43;5.10;;;20.00;99.90;;;;;;5106841;27;20524;-69
2023/03/19 18:46:52;;;;;;;7.75;5.05;;;20.00;99.90;;;;;;5104936;27;20378;-69
2023/03/19 18:49:26;;;;;;;9.70;5.25;;;20.00;99.90;;;;;;5107101;27;20387;-69
2023/03/19 18:51:52;;;;;;;9.40;6.13;;;20.00;99.90;;;;;;5105995;27;20043;-69
2023/03/19 18:54:18;;;;;;;7.95;4.93;;;20.00;99.90;;;;;;5106624;27;20063;-69
2023/03/19 18:56:45;;;;;;;10.05;5.22;;;20.00;99.90;;;;;;5107509;27;20044;-70
2023/03/19 18:59:25;;;;;;;9.25;5.40;;;20.00;99.90;;;;;;5106724;27;20051;-69
2023/03/19 19:01:59;;;;;;;9.45;5.28;;;20.00;99.90;;;;;;5111842;27;20058;-70
2023/03/19 19:04:25;;;;;;;8.95;5.00;;;19.90;99.90;;;;;;5107288;27;20055;-70
2023/03/19 19:06:51;;;;;;;7.80;5.28;;;19.90;99.90;;;;;;5106423;28;20048;-69
2023/03/19 19:19:16;;;;;;;7.97;4.97;;;21.10;52.60;;;;;;5127329;27;20223;-59
2023/03/19 19:21:41;;;;;;;5.70;4.03;;;21.00;52.80;;;;;;5115340;28;20059;-58
2023/03/19 19:24:07;;;;;;;8.60;4.68;;;20.90;52.80;;;;;;5115370;27;20040;-70
2023/03/19 19:26:35;;;;;;;6.93;4.50;;;23.20;52.50;;;;;;5114921;27;20043;-69
2023/03/19 19:29:02;;;;;;;7.13;4.60;;;21.90;51.70;;;;;;5115030;27;20631;-64
2023/03/19 19:31:30;;;;;;;7.80;4.68;;;21.50;54.00;;;;;;5115507;27;20076;-59
2023/03/19 19:33:58;;;;;;;7.47;4.70;;;21.20;54.10;;;;;;5113612;28;20097;-62
2023/03/19 19:36:26;;;;;;;7.05;4.50;;;21.90;51.80;;;;;;5115668;27;20051;-62
2023/03/19 19:41:00;;;;;;;8.35;4.70;;;;;;;;;;5088542;27;20419;-65
2023/03/19 19:43:28;;;;;;;6.95;4.50;;;;;;;;;;5085308;28;20040;-72
2023/03/19 19:45:55;;;;;;;7.75;4.68;;;;;;;;;;5083938;28;20048;-68
2023/03/19 19:50:56;;;;;;;6.03;4.15;;;38.70;99.90;;;;;;5065815;27;20750;-61
2023/03/19 19:56:13;;;;;;;7.50;4.68;;;23.30;99.90;;;;;;5105171;27;20414;-63
2023/03/19 19:58:40;;;;;;;12.15;4.10;;;21.40;99.00;;;;;;5102583;27;20108;-64
2023/03/19 20:01:16;;;;;;;7.68;4.68;;;20.60;98.10;;;;;;5096617;27;20138;-64
2023/03/19 20:03:42;;;;;;;7.20;4.18;;;20.20;98.20;;;;;;5106073;28;20036;-63
2023/03/19 20:06:07;;;;;;;10.57;4.18;;;20.10;98.10;;;;;;5102428;27;20051;-63
2023/03/19 20:08:33;;;;;;;7.57;3.72;;;20.00;97.80;;;;;;5104114;28;20054;-63
2023/03/19 20:10:59;;;;;;;7.50;3.60;;;19.90;97.40;;;;;;5105585;27;20141;-63
2023/03/19 20:13:34;;;;;;;6.15;3.47;;;19.90;96.60;;;;;;5106378;27;20044;-64
2023/03/19 20:16:01;;;;;;;5.05;3.80;;;19.90;95.70;;;;;;5104498;27;21109;-63
2023/03/19 20:18:28;;;;;;;6.72;3.90;;;19.80;95.00;;;;;;5106384;27;20048;-63
2023/03/19 20:20:55;;;;;;;5.97;3.85;;;19.90;94.70;;;;;;5104646;28;20911;-63
2023/03/19 20:23:21;;;;;;;10.77;4.03;;;19.80;94.60;;;;;;5104104;27;20079;-64
2023/03/19 20:25:48;;;;;;;6.38;3.70;;;19.90;94.60;;;;;;5104561;28;20048;-64
2023/03/19 20:28:25;;;;;;;6.00;3.63;;;19.80;94.50;;;;;;5103413;27;20079;-64
2023/03/19 20:30:52;;;;;;;7.68;4.20;;;19.80;94.40;;;;;;5103605;27;20082;-64
2023/03/19 20:33:19;;;;;;;7.63;4.60;;;19.80;94.40;;;;;;5104308;27;20058;-65
2023/03/19 20:35:45;;;;;;;8.27;4.30;;;19.80;94.30;;;;;;5104073;28;20039;-64
2023/03/19 20:38:12;;;;;;;6.35;4.00;;;19.90;94.20;;;;;;5104085;27;20161;-64
2023/03/19 20:40:49;;;;;;;6.93;3.72;;;19.90;94.30;;;;;;5103529;27;20039;-63
2023/03/19 20:43:29;;;;;;;5.97;4.00;;;19.90;94.40;;;;;;5101858;27;20052;-63
2023/03/19 20:45:57;;;;;;;6.13;4.05;;;19.90;94.20;;;;;;5100789;28;20066;-63
2023/03/19 20:48:24;;;;;;;5.65;3.80;;;19.90;94.30;;;;;;5104742;27;20051;-63
2023/03/19 20:50:51;;;;;;;7.80;4.28;;;19.90;94.10;;;;;;5105437;27;20084;-64
2023/03/19 20:53:16;;;;;;;6.03;4.03;;;19.80;94.10;;;;;;5105496;27;20097;-64
2023/03/19 20:55:44;;;;;;;5.93;3.95;;;19.80;94.10;;;;;;5105138;27;20052;-64
2023/03/19 20:58:32;;;;;;;5.60;3.97;;;19.80;94.10;;;;;;5104808;27;20464;-64
2023/03/19 21:00:58;;;;;;;5.60;3.60;;;19.80;94.10;;;;;;5104002;27;20035;-63
2023/03/19 21:03:29;;;;;;;6.43;3.70;;;19.80;94.00;;;;;;5103082;27;20066;-64
2023/03/19 21:06:01;;;;;;;7.05;3.83;;;19.80;94.00;;;;;;5099348;28;20089;-64
2023/03/19 21:08:34;;;;;;;8.05;3.78;;;19.80;94.00;;;;;;5090001;27;20092;-63
2023/03/19 21:11:00;;;;;;;6.10;3.60;;;19.80;94.00;;;;;;5090183;28;20451;-63
2023/03/19 21:13:26;;;;;;;5.97;3.72;;;19.80;94.10;;;;;;5090894;27;20552;-62
2023/03/19 21:15:55;;;;;;;5.07;3.30;;;19.80;94.20;;;;;;5088185;28;20486;-63
2023/03/19 21:18:21;;;;;;;5.55;3.60;;;19.80;94.20;;;;;;5092022;27;20051;-63
2023/03/19 21:20:53;;;;;;;5.45;3.40;;;19.80;94.20;;;;;;5091590;28;20166;-63
2023/03/19 21:23:30;;;;;;;4.88;3.30;;;19.80;94.10;;;;;;5091714;28;20040;-63
2023/03/19 21:26:03;;;;;;;4.72;3.03;;;19.70;94.00;;;;;;5089652;28;20039;-63
2023/03/19 21:28:38;;;;;;;5.63;3.30;;;19.80;94.10;;;;;;5089739;28;20036;-63
2023/03/19 21:31:05;;;;;;;8.45;3.05;;;19.80;94.10;;;;;;5090864;28;20746;-64
2023/03/19 21:33:33;;;;;;;5.43;3.25;;;19.80;94.20;;;;;;5090234;28;20402;-63